Augusta, Illinois
Current Conditions -  °F | °C
As of 9:54 AM on Thursday 30 Oct 2014 (Local Time) from KUIN Reporting Station
Light Rain Light Rain  
Wind Chill:   Ceiling: 7000
Heat Index:   Visibility: 7mi
Dew Point:   Wind: 14mph
Humidity: 80%   Direction: 160°SSE
Pressure: 30.07"   Gusts: NA
Location:  40.23°N, 90.95°W
Report Text: KUIN 301454Z AUTO 16012KT 7SM -RA BKN070 OVC085 07/04 A3007 RMK AO2 RAB19 PRESFR SLP184 P0001 60001 T00720039 58012
Loading
Personal Weather Stations






























Interactive Weather Map
Tropical Storm Tracking
New forecast layout! Learn more

10-Day Weather Forecast

Advertisements
Track Severe Weather on mobile